GIA246 WIII-WAHS
Flight info
| Callsign | GIA246 |
|---|---|
| Flight time | 0h 43m |
| Altitude | 25000 |
| Route | CA |
| Aircraft | B738/M-SDE2E3FGHIRWXY/LB1 |
Departure
| Time | 2026-04-23 12:51 |
|---|---|
| Airport | Soekarno-Hatta International Airport (WIII) |
Arrival
| Time | 2026-04-23 13:34 |
|---|---|
| Airport | Jenderal Ahmad Yani Airport (WAHS) |
| Time | Latitude | Longitude | Altitude | Speed | Heading |
|---|---|---|---|---|---|
| 2026-04-23 12:22 | -6.11457 | 106.67048 | 36 ft | 0 kts | 69° |
| 2026-04-23 12:36 | -6.11458 | 106.67045 | 37 ft | 3 kts | 69° |
| 2026-04-23 12:37 | -6.11466 | 106.67026 | 35 ft | 3 kts | 63° |
| 2026-04-23 12:37 | -6.11475 | 106.67008 | 35 ft | 3 kts | 68° |
| 2026-04-23 12:37 | -6.11480 | 106.66990 | 37 ft | 3 kts | 96° |
| 2026-04-23 12:37 | -6.11477 | 106.66972 | 37 ft | 3 kts | 107° |
| 2026-04-23 12:38 | -6.11469 | 106.66954 | 34 ft | 3 kts | 124° |
| 2026-04-23 12:38 | -6.11457 | 106.66938 | 35 ft | 3 kts | 121° |
| 2026-04-23 12:38 | -6.11452 | 106.66925 | 34 ft | 2 kts | 67° |
| 2026-04-23 12:38 | -6.11454 | 106.66919 | 36 ft | 0 kts | 66° |
| 2026-04-23 12:40 | -6.11454 | 106.66920 | 36 ft | 0 kts | 66° |
| 2026-04-23 12:41 | -6.11444 | 106.66925 | 37 ft | 5 kts | 27° |
| 2026-04-23 12:41 | -6.11384 | 106.66933 | 37 ft | 11 kts | 349° |
| 2026-04-23 12:41 | -6.11315 | 106.66904 | 37 ft | 10 kts | 337° |
| 2026-04-23 12:41 | -6.11249 | 106.66877 | 37 ft | 10 kts | 338° |
| 2026-04-23 12:42 | -6.11184 | 106.66850 | 37 ft | 10 kts | 337° |
| 2026-04-23 12:42 | -6.11135 | 106.66809 | 37 ft | 10 kts | 288° |
| 2026-04-23 12:42 | -6.11147 | 106.66744 | 37 ft | 9 kts | 245° |
| 2026-04-23 12:42 | -6.11169 | 106.66683 | 36 ft | 9 kts | 250° |
| 2026-04-23 12:43 | -6.11192 | 106.66623 | 36 ft | 9 kts | 247° |
| 2026-04-23 12:43 | -6.11216 | 106.66565 | 36 ft | 9 kts | 247° |
| 2026-04-23 12:43 | -6.11242 | 106.66503 | 35 ft | 11 kts | 247° |
| 2026-04-23 12:43 | -6.11276 | 106.66420 | 37 ft | 13 kts | 247° |
| 2026-04-23 12:44 | -6.11310 | 106.66335 | 37 ft | 13 kts | 248° |
| 2026-04-23 12:44 | -6.11343 | 106.66253 | 37 ft | 13 kts | 248° |
| 2026-04-23 12:44 | -6.11375 | 106.66172 | 36 ft | 12 kts | 248° |
| 2026-04-23 12:44 | -6.11406 | 106.66094 | 36 ft | 12 kts | 248° |
| 2026-04-23 12:45 | -6.11436 | 106.66018 | 36 ft | 12 kts | 248° |
| 2026-04-23 12:45 | -6.11466 | 106.65943 | 36 ft | 11 kts | 248° |
| 2026-04-23 12:45 | -6.11495 | 106.65869 | 36 ft | 13 kts | 248° |
| 2026-04-23 12:45 | -6.11535 | 106.65769 | 36 ft | 18 kts | 248° |
| 2026-04-23 12:46 | -6.11588 | 106.65636 | 34 ft | 22 kts | 248° |
| 2026-04-23 12:46 | -6.11646 | 106.65489 | 36 ft | 22 kts | 248° |
| 2026-04-23 12:46 | -6.11702 | 106.65348 | 37 ft | 22 kts | 248° |
| 2026-04-23 12:46 | -6.11757 | 106.65210 | 36 ft | 21 kts | 248° |
| 2026-04-23 12:47 | -6.11809 | 106.65078 | 37 ft | 20 kts | 248° |
| 2026-04-23 12:47 | -6.11861 | 106.64948 | 37 ft | 20 kts | 248° |
| 2026-04-23 12:47 | -6.11910 | 106.64823 | 37 ft | 19 kts | 248° |
| 2026-04-23 12:47 | -6.11959 | 106.64702 | 36 ft | 18 kts | 248° |
| 2026-04-23 12:48 | -6.12005 | 106.64588 | 35 ft | 18 kts | 247° |
| 2026-04-23 12:48 | -6.12051 | 106.64476 | 37 ft | 17 kts | 248° |
| 2026-04-23 12:48 | -6.12094 | 106.64366 | 36 ft | 17 kts | 248° |
| 2026-04-23 12:48 | -6.12137 | 106.64261 | 36 ft | 16 kts | 248° |
| 2026-04-23 12:49 | -6.12179 | 106.64156 | 35 ft | 17 kts | 248° |
| 2026-04-23 12:49 | -6.12228 | 106.64033 | 37 ft | 21 kts | 248° |
| 2026-04-23 12:49 | -6.12242 | 106.63917 | 35 ft | 14 kts | 301° |
| 2026-04-23 12:49 | -6.12163 | 106.63881 | 38 ft | 11 kts | 11° |
| 2026-04-23 12:50 | -6.12094 | 106.63905 | 37 ft | 11 kts | 11° |
| 2026-04-23 12:50 | -6.12071 | 106.63931 | 37 ft | 4 kts | 69° |
| 2026-04-23 12:50 | -6.12056 | 106.63970 | 37 ft | 14 kts | 69° |
| 2026-04-23 12:50 | -6.11933 | 106.64282 | 36 ft | 84 kts | 68° |
| 2026-04-23 12:51 | -6.11637 | 106.65018 | 38 ft | 144 kts | 68° |
| 2026-04-23 12:51 | -6.11207 | 106.66071 | 303 ft | 174 kts | 68° |
| 2026-04-23 12:51 | -6.10758 | 106.67219 | 1035 ft | 171 kts | 71° |
| 2026-04-23 12:51 | -6.10201 | 106.68187 | 2053 ft | 157 kts | 45° |
| 2026-04-23 12:52 | -6.09395 | 106.68974 | 2614 ft | 175 kts | 47° |
| 2026-04-23 12:52 | -6.08470 | 106.69934 | 2910 ft | 206 kts | 47° |
| 2026-04-23 12:52 | -6.07413 | 106.71041 | 3112 ft | 231 kts | 47° |
| 2026-04-23 12:52 | -6.06263 | 106.72261 | 3367 ft | 252 kts | 51° |
| 2026-04-23 12:53 | -6.05584 | 106.73911 | 3834 ft | 265 kts | 87° |
| 2026-04-23 12:53 | -6.05925 | 106.75714 | 4763 ft | 263 kts | 107° |
| 2026-04-23 12:53 | -6.06540 | 106.77478 | 5481 ft | 272 kts | 109° |
| 2026-04-23 12:53 | -6.07195 | 106.79261 | 6297 ft | 273 kts | 109° |
| 2026-04-23 12:54 | -6.07862 | 106.81068 | 6982 ft | 280 kts | 109° |
| 2026-04-23 12:54 | -6.08543 | 106.82919 | 7724 ft | 283 kts | 109° |
| 2026-04-23 12:54 | -6.09224 | 106.84789 | 8484 ft | 287 kts | 109° |
| 2026-04-23 12:54 | -6.09912 | 106.86690 | 9216 ft | 292 kts | 109° |
| 2026-04-23 12:55 | -6.10599 | 106.88596 | 9914 ft | 296 kts | 109° |
| 2026-04-23 12:55 | -6.11307 | 106.90571 | 10411 ft | 309 kts | 109° |
| 2026-04-23 12:55 | -6.12060 | 106.92680 | 10562 ft | 332 kts | 109° |
| 2026-04-23 12:55 | -6.12859 | 106.94920 | 10802 ft | 349 kts | 109° |
| 2026-04-23 12:56 | -6.13691 | 106.97256 | 11304 ft | 356 kts | 109° |
| 2026-04-23 12:56 | -6.14531 | 106.99616 | 11951 ft | 359 kts | 109° |
| 2026-04-23 12:56 | -6.15376 | 107.01989 | 12603 ft | 362 kts | 109° |
| 2026-04-23 12:56 | -6.16221 | 107.04367 | 13234 ft | 366 kts | 109° |
| 2026-04-23 12:57 | -6.17080 | 107.06785 | 13847 ft | 370 kts | 109° |
| 2026-04-23 12:57 | -6.17955 | 107.09248 | 14437 ft | 373 kts | 109° |
| 2026-04-23 12:57 | -6.18830 | 107.11712 | 15067 ft | 375 kts | 109° |
| 2026-04-23 12:57 | -6.19712 | 107.14195 | 15673 ft | 378 kts | 109° |
| 2026-04-23 12:58 | -6.20599 | 107.16694 | 16274 ft | 381 kts | 109° |
| 2026-04-23 12:58 | -6.21497 | 107.19224 | 16858 ft | 384 kts | 109° |
| 2026-04-23 12:58 | -6.22387 | 107.21731 | 17447 ft | 387 kts | 109° |
| 2026-04-23 12:58 | -6.23294 | 107.24289 | 18027 ft | 391 kts | 109° |
| 2026-04-23 12:59 | -6.24210 | 107.26873 | 18536 ft | 393 kts | 109° |
| 2026-04-23 12:59 | -6.25133 | 107.29476 | 19018 ft | 396 kts | 109° |
| 2026-04-23 12:59 | -6.26062 | 107.32097 | 19489 ft | 399 kts | 109° |
| 2026-04-23 12:59 | -6.26998 | 107.34736 | 19961 ft | 402 kts | 109° |
| 2026-04-23 13:00 | -6.27940 | 107.37394 | 20433 ft | 405 kts | 109° |
| 2026-04-23 13:00 | -6.28892 | 107.40080 | 20891 ft | 408 kts | 109° |
| 2026-04-23 13:00 | -6.29847 | 107.42776 | 21346 ft | 411 kts | 109° |
| 2026-04-23 13:00 | -6.30811 | 107.45499 | 21776 ft | 414 kts | 109° |
| 2026-04-23 13:01 | -6.31782 | 107.48239 | 22193 ft | 418 kts | 109° |
| 2026-04-23 13:01 | -6.32757 | 107.50992 | 22670 ft | 419 kts | 109° |
| 2026-04-23 13:01 | -6.33734 | 107.53750 | 23277 ft | 417 kts | 109° |
| 2026-04-23 13:01 | -6.34704 | 107.56489 | 23810 ft | 415 kts | 109° |
| 2026-04-23 13:02 | -6.35666 | 107.59207 | 24329 ft | 413 kts | 109° |
| 2026-04-23 13:02 | -6.36630 | 107.61932 | 24776 ft | 414 kts | 109° |
| 2026-04-23 13:02 | -6.37598 | 107.64669 | 24841 ft | 412 kts | 109° |
| 2026-04-23 13:02 | -6.38545 | 107.67349 | 24867 ft | 414 kts | 109° |
| 2026-04-23 13:03 | -6.39513 | 107.70084 | 24875 ft | 418 kts | 109° |
| 2026-04-23 13:03 | -6.40498 | 107.72871 | 24889 ft | 427 kts | 109° |
| 2026-04-23 13:03 | -6.41501 | 107.75709 | 24887 ft | 436 kts | 109° |
| 2026-04-23 13:03 | -6.42525 | 107.78606 | 24890 ft | 443 kts | 109° |
| 2026-04-23 13:04 | -6.43564 | 107.81546 | 24887 ft | 450 kts | 109° |
| 2026-04-23 13:04 | -6.44619 | 107.84534 | 24884 ft | 455 kts | 109° |
| 2026-04-23 13:04 | -6.45685 | 107.87551 | 24887 ft | 460 kts | 109° |
| 2026-04-23 13:04 | -6.46398 | 107.89571 | 24886 ft | 463 kts | 109° |
| 2026-04-23 13:05 | -6.47481 | 107.92636 | 24888 ft | 467 kts | 109° |
| 2026-04-23 13:05 | -6.48572 | 107.95726 | 24889 ft | 471 kts | 109° |
| 2026-04-23 13:05 | -6.49669 | 107.98834 | 24886 ft | 474 kts | 109° |
| 2026-04-23 13:05 | -6.50777 | 108.01974 | 24887 ft | 476 kts | 109° |
| 2026-04-23 13:06 | -6.53002 | 108.08281 | 24883 ft | 480 kts | 109° |
| 2026-04-23 13:06 | -6.54122 | 108.11458 | 24881 ft | 482 kts | 109° |
| 2026-04-23 13:06 | -6.55229 | 108.14599 | 24879 ft | 483 kts | 109° |
| 2026-04-23 13:07 | -6.56355 | 108.17793 | 24880 ft | 484 kts | 109° |
| 2026-04-23 13:07 | -6.57481 | 108.20987 | 24879 ft | 486 kts | 109° |
| 2026-04-23 13:07 | -6.58612 | 108.24198 | 24883 ft | 486 kts | 109° |
| 2026-04-23 13:07 | -6.59743 | 108.27410 | 24883 ft | 487 kts | 109° |
| 2026-04-23 13:08 | -6.60876 | 108.30626 | 24881 ft | 488 kts | 109° |
| 2026-04-23 13:08 | -6.62008 | 108.33841 | 24883 ft | 488 kts | 109° |
| 2026-04-23 13:08 | -6.63144 | 108.37069 | 24883 ft | 489 kts | 109° |
| 2026-04-23 13:08 | -6.64280 | 108.40297 | 24882 ft | 489 kts | 109° |
| 2026-04-23 13:09 | -6.65416 | 108.43528 | 24881 ft | 490 kts | 109° |
| 2026-04-23 13:09 | -6.66553 | 108.46761 | 24883 ft | 490 kts | 109° |
| 2026-04-23 13:09 | -6.67689 | 108.49992 | 24886 ft | 490 kts | 109° |
| 2026-04-23 13:09 | -6.68825 | 108.53223 | 24884 ft | 491 kts | 109° |
| 2026-04-23 13:10 | -6.69923 | 108.56436 | 24881 ft | 491 kts | 105° |
| 2026-04-23 13:10 | -6.70658 | 108.59783 | 24890 ft | 490 kts | 99° |
| 2026-04-23 13:10 | -6.71185 | 108.63179 | 24883 ft | 490 kts | 98° |
| 2026-04-23 13:10 | -6.71652 | 108.66582 | 24881 ft | 490 kts | 97° |
| 2026-04-23 13:11 | -6.72118 | 108.69973 | 24881 ft | 491 kts | 97° |
| 2026-04-23 13:11 | -6.72611 | 108.73379 | 24878 ft | 491 kts | 98° |
| 2026-04-23 13:11 | -6.73129 | 108.76783 | 24877 ft | 491 kts | 98° |
| 2026-04-23 13:11 | -6.73663 | 108.80172 | 24875 ft | 491 kts | 98° |
| 2026-04-23 13:12 | -6.74207 | 108.83566 | 24877 ft | 491 kts | 99° |
| 2026-04-23 13:12 | -6.74755 | 108.86963 | 24873 ft | 491 kts | 99° |
| 2026-04-23 13:12 | -6.75302 | 108.90358 | 24873 ft | 491 kts | 99° |
| 2026-04-23 13:12 | -6.75847 | 108.93753 | 24875 ft | 491 kts | 98° |
| 2026-04-23 13:13 | -6.76391 | 108.97151 | 24874 ft | 491 kts | 98° |
| 2026-04-23 13:13 | -6.76929 | 109.00526 | 24873 ft | 491 kts | 98° |
| 2026-04-23 13:13 | -6.77473 | 109.03932 | 24874 ft | 491 kts | 98° |
| 2026-04-23 13:13 | -6.78014 | 109.07327 | 24873 ft | 491 kts | 98° |
| 2026-04-23 13:14 | -6.78554 | 109.10717 | 24870 ft | 491 kts | 98° |
| 2026-04-23 13:14 | -6.79094 | 109.14107 | 24785 ft | 492 kts | 98° |
| 2026-04-23 13:14 | -6.79610 | 109.17538 | 24336 ft | 495 kts | 98° |
| 2026-04-23 13:14 | -6.80087 | 109.20906 | 23836 ft | 490 kts | 97° |
| 2026-04-23 13:15 | -6.80555 | 109.24288 | 23257 ft | 487 kts | 97° |
| 2026-04-23 13:15 | -6.81017 | 109.27647 | 22649 ft | 481 kts | 97° |
| 2026-04-23 13:15 | -6.81475 | 109.30957 | 22087 ft | 475 kts | 97° |
| 2026-04-23 13:15 | -6.81933 | 109.34241 | 21544 ft | 470 kts | 97° |
| 2026-04-23 13:16 | -6.82387 | 109.37479 | 21017 ft | 466 kts | 97° |
| 2026-04-23 13:16 | -6.82840 | 109.40693 | 20494 ft | 462 kts | 97° |
| 2026-04-23 13:16 | -6.83290 | 109.43886 | 19977 ft | 459 kts | 97° |
| 2026-04-23 13:16 | -6.83739 | 109.47073 | 19441 ft | 457 kts | 97° |
| 2026-04-23 13:17 | -6.84184 | 109.50233 | 18920 ft | 455 kts | 97° |
| 2026-04-23 13:17 | -6.84618 | 109.53312 | 18402 ft | 437 kts | 97° |
| 2026-04-23 13:17 | -6.85033 | 109.56265 | 17873 ft | 428 kts | 97° |
| 2026-04-23 13:17 | -6.85453 | 109.59251 | 17349 ft | 421 kts | 97° |
| 2026-04-23 13:18 | -6.85854 | 109.62109 | 16862 ft | 416 kts | 97° |
| 2026-04-23 13:18 | -6.86259 | 109.64999 | 16383 ft | 415 kts | 97° |
| 2026-04-23 13:18 | -6.86661 | 109.67860 | 15912 ft | 413 kts | 97° |
| 2026-04-23 13:18 | -6.87062 | 109.70722 | 15439 ft | 412 kts | 97° |
| 2026-04-23 13:19 | -6.87462 | 109.73573 | 14968 ft | 410 kts | 97° |
| 2026-04-23 13:19 | -6.87860 | 109.76416 | 14477 ft | 409 kts | 98° |
| 2026-04-23 13:19 | -6.88256 | 109.79245 | 13999 ft | 407 kts | 98° |
| 2026-04-23 13:19 | -6.88650 | 109.82057 | 13500 ft | 405 kts | 98° |
| 2026-04-23 13:20 | -6.89040 | 109.84844 | 12993 ft | 401 kts | 97° |
| 2026-04-23 13:20 | -6.89428 | 109.87613 | 12615 ft | 394 kts | 97° |
| 2026-04-23 13:20 | -6.89722 | 109.89630 | 12301 ft | 390 kts | 98° |
| 2026-04-23 13:20 | -6.90138 | 109.92085 | 11921 ft | 387 kts | 99° |
| 2026-04-23 13:21 | -6.90624 | 109.94746 | 11487 ft | 384 kts | 100° |
| 2026-04-23 13:21 | -6.91113 | 109.97379 | 11051 ft | 382 kts | 100° |
| 2026-04-23 13:21 | -6.91598 | 109.99998 | 10614 ft | 380 kts | 99° |
| 2026-04-23 13:21 | -6.92073 | 110.02593 | 10363 ft | 374 kts | 99° |
| 2026-04-23 13:22 | -6.92538 | 110.05152 | 10198 ft | 367 kts | 99° |
| 2026-04-23 13:22 | -6.92980 | 110.07603 | 10028 ft | 344 kts | 99° |
| 2026-04-23 13:22 | -6.93393 | 110.09895 | 9884 ft | 321 kts | 99° |
| 2026-04-23 13:22 | -6.93774 | 110.12024 | 9664 ft | 304 kts | 99° |
| 2026-04-23 13:23 | -6.94150 | 110.14124 | 9151 ft | 299 kts | 99° |
| 2026-04-23 13:23 | -6.94514 | 110.16164 | 8781 ft | 290 kts | 99° |
| 2026-04-23 13:23 | -6.94865 | 110.18131 | 8471 ft | 281 kts | 99° |
| 2026-04-23 13:23 | -6.95206 | 110.20035 | 8174 ft | 271 kts | 99° |
| 2026-04-23 13:24 | -6.95531 | 110.21861 | 7911 ft | 267 kts | 99° |
| 2026-04-23 13:24 | -6.95859 | 110.23699 | 7638 ft | 266 kts | 99° |
| 2026-04-23 13:24 | -6.96190 | 110.25552 | 7362 ft | 265 kts | 99° |
| 2026-04-23 13:24 | -6.96515 | 110.27373 | 7090 ft | 264 kts | 99° |
| 2026-04-23 13:25 | -6.96839 | 110.29193 | 6808 ft | 264 kts | 99° |
| 2026-04-23 13:25 | -6.97163 | 110.31007 | 6528 ft | 263 kts | 99° |
| 2026-04-23 13:25 | -6.97486 | 110.32819 | 6246 ft | 262 kts | 99° |
| 2026-04-23 13:25 | -6.97807 | 110.34619 | 5821 ft | 267 kts | 99° |
| 2026-04-23 13:26 | -6.98134 | 110.36456 | 5501 ft | 267 kts | 99° |
| 2026-04-23 13:26 | -6.98463 | 110.38303 | 5179 ft | 268 kts | 99° |
| 2026-04-23 13:26 | -6.98791 | 110.40145 | 4873 ft | 267 kts | 100° |
| 2026-04-23 13:26 | -6.99118 | 110.41980 | 4583 ft | 266 kts | 100° |
| 2026-04-23 13:27 | -6.99446 | 110.43816 | 4274 ft | 265 kts | 100° |
| 2026-04-23 13:27 | -6.99763 | 110.45596 | 4097 ft | 251 kts | 100° |
| 2026-04-23 13:27 | -7.00062 | 110.47276 | 4001 ft | 234 kts | 99° |
| 2026-04-23 13:27 | -7.00336 | 110.48814 | 3952 ft | 212 kts | 99° |
| 2026-04-23 13:28 | -7.00582 | 110.50194 | 3931 ft | 189 kts | 99° |
| 2026-04-23 13:28 | -7.00803 | 110.51430 | 3908 ft | 176 kts | 99° |
| 2026-04-23 13:28 | -7.01019 | 110.52643 | 3889 ft | 173 kts | 99° |
| 2026-04-23 13:28 | -7.01532 | 110.53723 | 3794 ft | 176 kts | 137° |
| 2026-04-23 13:29 | -7.02648 | 110.54171 | 3684 ft | 182 kts | 179° |
| 2026-04-23 13:29 | -7.03817 | 110.53722 | 3565 ft | 186 kts | 218° |
| 2026-04-23 13:29 | -7.04812 | 110.52867 | 3359 ft | 191 kts | 219° |
| 2026-04-23 13:29 | -7.05823 | 110.52015 | 3144 ft | 186 kts | 218° |
| 2026-04-23 13:30 | -7.06785 | 110.51176 | 2931 ft | 181 kts | 227° |
| 2026-04-23 13:30 | -7.07227 | 110.50032 | 2723 ft | 178 kts | 275° |
| 2026-04-23 13:30 | -7.06721 | 110.48926 | 2596 ft | 177 kts | 309° |
| 2026-04-23 13:30 | -7.05975 | 110.47913 | 2448 ft | 181 kts | 309° |
| 2026-04-23 13:31 | -7.05191 | 110.46949 | 2232 ft | 175 kts | 311° |
| 2026-04-23 13:31 | -7.04425 | 110.46041 | 1997 ft | 167 kts | 311° |
| 2026-04-23 13:31 | -7.03688 | 110.45171 | 1821 ft | 159 kts | 311° |
| 2026-04-23 13:31 | -7.02964 | 110.44312 | 1587 ft | 160 kts | 311° |
| 2026-04-23 13:32 | -7.02258 | 110.43475 | 1394 ft | 158 kts | 311° |
| 2026-04-23 13:32 | -7.01556 | 110.42643 | 1186 ft | 150 kts | 311° |
| 2026-04-23 13:32 | -7.00904 | 110.41868 | 998 ft | 140 kts | 310° |
| 2026-04-23 13:32 | -7.00289 | 110.41138 | 823 ft | 135 kts | 310° |
| 2026-04-23 13:33 | -6.99679 | 110.40415 | 653 ft | 136 kts | 311° |
| 2026-04-23 13:33 | -6.99063 | 110.39685 | 465 ft | 136 kts | 311° |
| 2026-04-23 13:33 | -6.98457 | 110.38951 | 268 ft | 136 kts | 311° |
| 2026-04-23 13:33 | -6.97838 | 110.38236 | 89 ft | 135 kts | 311° |
| 2026-04-23 13:34 | -6.97244 | 110.37536 | 17 ft | 120 kts | 311° |
| 2026-04-23 13:34 | -6.96761 | 110.36970 | 6 ft | 89 kts | 310° |
| 2026-04-23 13:34 | -6.96457 | 110.36610 | 3 ft | 47 kts | 309° |
| 2026-04-23 13:34 | -6.96321 | 110.36448 | 4 ft | 19 kts | 310° |
| 2026-04-23 13:35 | -6.96271 | 110.36348 | 4 ft | 11 kts | 322° |
| 2026-04-23 13:35 | -6.96234 | 110.36350 | 3 ft | 1 kts | 48° |
| 2026-04-23 13:35 | -6.96239 | 110.36360 | 3 ft | 2 kts | 124° |
| 2026-04-23 13:35 | -6.96264 | 110.36385 | 3 ft | 9 kts | 136° |
| 2026-04-23 13:36 | -6.96324 | 110.36451 | 4 ft | 17 kts | 131° |
| 2026-04-23 13:36 | -6.96418 | 110.36562 | 4 ft | 24 kts | 130° |
| 2026-04-23 13:36 | -6.96538 | 110.36704 | 5 ft | 29 kts | 130° |
| 2026-04-23 13:36 | -6.96659 | 110.36849 | 5 ft | 26 kts | 130° |
| 2026-04-23 13:37 | -6.96773 | 110.36982 | 6 ft | 12 kts | 130° |
| 2026-04-23 13:37 | -6.96780 | 110.37059 | 7 ft | 7 kts | 58° |
| 2026-04-23 13:37 | -6.96742 | 110.37092 | 13 ft | 7 kts | 40° |
| 2026-04-23 13:37 | -6.96701 | 110.37127 | 16 ft | 9 kts | 40° |
| 2026-04-23 13:38 | -6.96638 | 110.37180 | 17 ft | 15 kts | 40° |
| 2026-04-23 13:38 | -6.96618 | 110.37207 | 18 ft | 3 kts | 87° |
| 2026-04-23 13:38 | -6.96634 | 110.37236 | 19 ft | 8 kts | 128° |
| 2026-04-23 13:38 | -6.96686 | 110.37300 | 18 ft | 15 kts | 130° |
| 2026-04-23 13:39 | -6.96756 | 110.37383 | 18 ft | 4 kts | 129° |
| 2026-04-23 13:39 | -6.96766 | 110.37405 | 18 ft | 1 kts | 87° |
| 2026-04-23 13:39 | -6.96761 | 110.37412 | 18 ft | 1 kts | 57° |
| 2026-04-23 13:39 | -6.96749 | 110.37425 | 19 ft | 4 kts | 41° |
| 2026-04-23 13:40 | -6.96718 | 110.37451 | 18 ft | 5 kts | 40° |
| 2026-04-23 13:40 | -6.96713 | 110.37456 | 18 ft | 0 kts | 40° |